Time;durP1;ratioP1;P1;durP2;ratioP2;P2;SDS_P1;SDS_P2;PMS_P1;PMS_P2;Temp;Humidity;BMP_temperature;BMP_pressure;BME280_temperature;BME280_humidity;BME280_pressure;Samples;Min_cycle;Max_cycle;Signal;HPM_P1;HPM_P2
2020/11/07 00:00:20;;;;;;;45.10001;24.45;;;;;;;5.62;100;96384.36;;;;
2020/11/07 00:01:21;;;;;;;45.10001;24.45;;;;;;;5.62;100;96384.36;;;;
2020/11/07 00:02:21;;;;;;;58.1;20.85;;;;;;;5.59;100;96370.48;;;;
2020/11/07 00:03:22;;;;;;;58.1;20.85;;;;;;;5.59;100;96370.48;;;;
2020/11/07 00:04:22;;;;;;;58.1;20.85;;;;;;;5.59;100;96370.48;;;;
2020/11/07 00:05:23;;;;;;;58.1;20.85;;;;;;;5.59;100;96370.48;;;;
2020/11/07 00:06:23;;;;;;;58.1;20.85;;;;;;;5.59;100;96370.48;;;;
2020/11/07 00:07:24;;;;;;;58.1;20.85;;;;;;;5.59;100;96370.48;;;;
2020/11/07 00:08:24;;;;;;;58.1;20.85;;;;;;;5.59;100;96370.48;;;;
2020/11/07 00:09:25;;;;;;;58.1;20.85;;;;;;;5.59;100;96370.48;;;;
2020/11/07 00:10:25;;;;;;;58.1;20.85;;;;;;;5.59;100;96370.48;;;;
2020/11/07 00:11:26;;;;;;;58.1;20.85;;;;;;;5.59;100;96370.48;;;;
2020/11/07 00:12:26;;;;;;;32.8;19.8;;;;;;;5.55;100;96369.17;;;;
2020/11/07 00:13:26;;;;;;;32.8;19.8;;;;;;;5.55;100;96369.17;;;;
2020/11/07 00:14:27;;;;;;;32.8;19.8;;;;;;;5.55;100;96369.17;;;;
2020/11/07 00:15:27;;;;;;;32.8;19.8;;;;;;;5.55;100;96369.17;;;;
2020/11/07 00:16:28;;;;;;;32.8;19.8;;;;;;;5.55;100;96369.17;;;;
2020/11/07 00:17:28;;;;;;;32.8;19.8;;;;;;;5.55;100;96369.17;;;;
2020/11/07 00:18:29;;;;;;;32.8;19.8;;;;;;;5.55;100;96369.17;;;;
2020/11/07 00:19:30;;;;;;;32.8;19.8;;;;;;;5.55;100;96369.17;;;;
2020/11/07 00:20:30;;;;;;;32.8;19.8;;;;;;;5.55;100;96369.17;;;;
2020/11/07 00:21:31;;;;;;;32.8;19.8;;;;;;;5.55;100;96369.17;;;;
2020/11/07 00:22:33;;;;;;;32.8;19.8;;;;;;;5.55;100;96369.17;;;;
2020/11/07 00:23:33;;;;;;;43.6;20.65;;;;;;;5.52;100;96367.28;;;;
2020/11/07 00:24:34;;;;;;;43.6;20.65;;;;;;;5.52;100;96367.28;;;;
2020/11/07 00:25:34;;;;;;;43.6;20.65;;;;;;;5.52;100;96367.28;;;;
2020/11/07 00:26:35;;;;;;;43.6;20.65;;;;;;;5.52;100;96367.28;;;;
2020/11/07 00:27:35;;;;;;;43.6;20.65;;;;;;;5.52;100;96367.28;;;;
2020/11/07 00:28:36;;;;;;;43.6;20.65;;;;;;;5.52;100;96367.28;;;;
2020/11/07 00:29:36;;;;;;;43.6;20.65;;;;;;;5.52;100;96367.28;;;;
2020/11/07 00:30:37;;;;;;;43.6;20.65;;;;;;;5.52;100;96367.28;;;;
2020/11/07 00:31:37;;;;;;;43.6;20.65;;;;;;;5.52;100;96367.28;;;;
2020/11/07 00:32:38;;;;;;;43.6;20.65;;;;;;;5.52;100;96367.28;;;;
2020/11/07 00:33:38;;;;;;;43.6;20.65;;;;;;;5.52;100;96367.28;;;;
2020/11/07 00:34:39;;;;;;;39.75001;20.65;;;;;;;5.46;100;96367.56;;;;
2020/11/07 00:35:39;;;;;;;39.75001;20.65;;;;;;;5.46;100;96367.56;;;;
2020/11/07 00:36:40;;;;;;;39.75001;20.65;;;;;;;5.46;100;96367.56;;;;
2020/11/07 00:37:41;;;;;;;39.75001;20.65;;;;;;;5.46;100;96367.56;;;;
2020/11/07 00:38:41;;;;;;;39.75001;20.65;;;;;;;5.46;100;96367.56;;;;
2020/11/07 00:39:42;;;;;;;39.75001;20.65;;;;;;;5.46;100;96367.56;;;;
2020/11/07 00:40:42;;;;;;;39.75001;20.65;;;;;;;5.46;100;96367.56;;;;
2020/11/07 00:41:43;;;;;;;39.75001;20.65;;;;;;;5.46;100;96367.56;;;;
2020/11/07 00:42:43;;;;;;;39.75001;20.65;;;;;;;5.46;100;96367.56;;;;
2020/11/07 00:43:44;;;;;;;39.75001;20.65;;;;;;;5.46;100;96367.56;;;;
2020/11/07 00:44:44;;;;;;;66.3;21.4;;;;;;;5.39;100;96366.61;;;;
2020/11/07 00:45:45;;;;;;;66.3;21.4;;;;;;;5.39;100;96366.61;;;;
2020/11/07 00:46:45;;;;;;;66.3;21.4;;;;;;;5.39;100;96366.61;;;;
2020/11/07 00:47:46;;;;;;;66.3;21.4;;;;;;;5.39;100;96366.61;;;;
2020/11/07 00:48:46;;;;;;;66.3;21.4;;;;;;;5.39;100;96366.61;;;;
2020/11/07 00:49:47;;;;;;;66.3;21.4;;;;;;;5.39;100;96366.61;;;;
2020/11/07 00:50:48;;;;;;;66.3;21.4;;;;;;;5.39;100;96366.61;;;;
2020/11/07 00:51:49;;;;;;;66.3;21.4;;;;;;;5.39;100;96366.61;;;;
2020/11/07 00:52:49;;;;;;;66.3;21.4;;;;;;;5.39;100;96366.61;;;;
2020/11/07 00:53:50;;;;;;;66.3;21.4;;;;;;;5.39;100;96366.61;;;;
2020/11/07 00:54:50;;;;;;;66.3;21.4;;;;;;;5.39;100;96366.61;;;;
2020/11/07 00:55:51;;;;;;;37.25;20.65;;;;;;;5.4;100;96363.33;;;;
2020/11/07 00:56:51;;;;;;;37.25;20.65;;;;;;;5.4;100;96363.33;;;;
2020/11/07 00:57:52;;;;;;;37.25;20.65;;;;;;;5.4;100;96363.33;;;;
2020/11/07 00:58:52;;;;;;;37.25;20.65;;;;;;;5.4;100;96363.33;;;;
2020/11/07 00:59:53;;;;;;;37.25;20.65;;;;;;;5.4;100;96363.33;;;;
2020/11/07 01:00:53;;;;;;;37.25;20.65;;;;;;;5.4;100;96363.33;;;;
2020/11/07 01:01:54;;;;;;;37.25;20.65;;;;;;;5.4;100;96363.33;;;;
2020/11/07 01:02:54;;;;;;;37.25;20.65;;;;;;;5.4;100;96363.33;;;;
2020/11/07 01:03:55;;;;;;;37.25;20.65;;;;;;;5.4;100;96363.33;;;;
2020/11/07 01:04:55;;;;;;;37.25;20.65;;;;;;;5.4;100;96363.33;;;;
2020/11/07 01:05:56;;;;;;;44.55001;21;;;;;;;5.37;100;96355.66;;;;
2020/11/07 01:06:57;;;;;;;44.55001;21;;;;;;;5.37;100;96355.66;;;;
2020/11/07 01:07:57;;;;;;;44.55001;21;;;;;;;5.37;100;96355.66;;;;
2020/11/07 01:08:58;;;;;;;44.55001;21;;;;;;;5.37;100;96355.66;;;;
2020/11/07 01:09:58;;;;;;;44.55001;21;;;;;;;5.37;100;96355.66;;;;
2020/11/07 01:10:59;;;;;;;44.55001;21;;;;;;;5.37;100;96355.66;;;;
2020/11/07 01:12:02;;;;;;;44.55001;21;;;;;;;5.37;100;96355.66;;;;
2020/11/07 01:13:03;;;;;;;44.55001;21;;;;;;;5.37;100;96355.66;;;;
2020/11/07 01:14:03;;;;;;;44.55001;21;;;;;;;5.37;100;96355.66;;;;
2020/11/07 01:15:04;;;;;;;44.55001;21;;;;;;;5.37;100;96355.66;;;;
2020/11/07 01:16:06;;;;;;;44.55001;21;;;;;;;5.37;100;96355.66;;;;
2020/11/07 01:17:06;;;;;;;45.84999;22.75;;;;;;;5.36;100;96357.07;;;;
2020/11/07 01:18:07;;;;;;;45.84999;22.75;;;;;;;5.36;100;96357.07;;;;
2020/11/07 01:19:08;;;;;;;45.84999;22.75;;;;;;;5.36;100;96357.07;;;;
2020/11/07 01:20:13;;;;;;;45.84999;22.75;;;;;;;5.36;100;96357.07;;;;
2020/11/07 01:21:13;;;;;;;45.84999;22.75;;;;;;;5.36;100;96357.07;;;;
2020/11/07 01:22:14;;;;;;;45.84999;22.75;;;;;;;5.36;100;96357.07;;;;
2020/11/07 01:23:14;;;;;;;45.84999;22.75;;;;;;;5.36;100;96357.07;;;;
2020/11/07 01:24:15;;;;;;;45.84999;22.75;;;;;;;5.36;100;96357.07;;;;
2020/11/07 01:25:18;;;;;;;45.84999;22.75;;;;;;;5.36;100;96357.07;;;;
2020/11/07 01:26:18;;;;;;;45.84999;22.75;;;;;;;5.36;100;96357.07;;;;
2020/11/07 01:27:19;;;;;;;42.05;22.4;;;;;;;5.38;100;96354.66;;;;
2020/11/07 01:28:19;;;;;;;42.05;22.4;;;;;;;5.38;100;96354.66;;;;
2020/11/07 01:29:20;;;;;;;42.05;22.4;;;;;;;5.38;100;96354.66;;;;
2020/11/07 01:30:22;;;;;;;42.05;22.4;;;;;;;5.38;100;96354.66;;;;
2020/11/07 01:31:23;;;;;;;42.05;22.4;;;;;;;5.38;100;96354.66;;;;
2020/11/07 01:32:23;;;;;;;42.05;22.4;;;;;;;5.38;100;96354.66;;;;
2020/11/07 01:33:24;;;;;;;42.05;22.4;;;;;;;5.38;100;96354.66;;;;
2020/11/07 01:34:24;;;;;;;42.05;22.4;;;;;;;5.38;100;96354.66;;;;
2020/11/07 01:35:25;;;;;;;42.05;22.4;;;;;;;5.38;100;96354.66;;;;
2020/11/07 01:36:25;;;;;;;42.05;22.4;;;;;;;5.38;100;96354.66;;;;
2020/11/07 01:37:26;;;;;;;42.05;22.4;;;;;;;5.38;100;96354.66;;;;
2020/11/07 01:38:26;;;;;;;48;21.7;;;;;;;5.38;100;96347.44;;;;
2020/11/07 01:39:27;;;;;;;48;21.7;;;;;;;5.38;100;96347.44;;;;
2020/11/07 01:40:27;;;;;;;48;21.7;;;;;;;5.38;100;96347.44;;;;
2020/11/07 01:41:28;;;;;;;48;21.7;;;;;;;5.38;100;96347.44;;;;
2020/11/07 01:42:28;;;;;;;48;21.7;;;;;;;5.38;100;96347.44;;;;
2020/11/07 01:43:29;;;;;;;48;21.7;;;;;;;5.38;100;96347.44;;;;
2020/11/07 01:44:30;;;;;;;48;21.7;;;;;;;5.38;100;96347.44;;;;
2020/11/07 01:45:32;;;;;;;48;21.7;;;;;;;5.38;100;96347.44;;;;
2020/11/07 01:46:47;;;;;;;48;21.7;;;;;;;5.38;100;96347.44;;;;
2020/11/07 01:47:48;;;;;;;48;21.7;;;;;;;5.38;100;96347.44;;;;
2020/11/07 01:48:50;;;;;;;39.95;17.95;;;;;;;5.36;100;96337.41;;;;
2020/11/07 01:49:52;;;;;;;39.95;17.95;;;;;;;5.36;100;96337.41;;;;
2020/11/07 01:50:54;;;;;;;39.95;17.95;;;;;;;5.36;100;96337.41;;;;
2020/11/07 01:51:56;;;;;;;39.95;17.95;;;;;;;5.36;100;96337.41;;;;
2020/11/07 01:52:56;;;;;;;39.95;17.95;;;;;;;5.36;100;96337.41;;;;
2020/11/07 01:53:57;;;;;;;39.95;17.95;;;;;;;5.36;100;96337.41;;;;
2020/11/07 01:54:58;;;;;;;39.95;17.95;;;;;;;5.36;100;96337.41;;;;
2020/11/07 01:55:58;;;;;;;39.95;17.95;;;;;;;5.36;100;96337.41;;;;
2020/11/07 01:56:59;;;;;;;39.95;17.95;;;;;;;5.36;100;96337.41;;;;
2020/11/07 01:57:59;;;;;;;39.95;17.95;;;;;;;5.36;100;96337.41;;;;
2020/11/07 01:59:01;;;;;;;39.95;17.95;;;;;;;5.36;100;96337.41;;;;
2020/11/07 02:00:01;;;;;;;41;15.75;;;;;;;5.27;100;96326.42;;;;
2020/11/07 02:01:03;;;;;;;41;15.75;;;;;;;5.27;100;96326.42;;;;
2020/11/07 02:02:06;;;;;;;41;15.75;;;;;;;5.27;100;96326.42;;;;
2020/11/07 02:03:10;;;;;;;41;15.75;;;;;;;5.27;100;96326.42;;;;
2020/11/07 02:04:12;;;;;;;41;15.75;;;;;;;5.27;100;96326.42;;;;
2020/11/07 02:05:13;;;;;;;41;15.75;;;;;;;5.27;100;96326.42;;;;
2020/11/07 02:06:13;;;;;;;41;15.75;;;;;;;5.27;100;96326.42;;;;
2020/11/07 02:07:14;;;;;;;41;15.75;;;;;;;5.27;100;96326.42;;;;
2020/11/07 02:08:14;;;;;;;41;15.75;;;;;;;5.27;100;96326.42;;;;
2020/11/07 02:09:15;;;;;;;41;15.75;;;;;;;5.27;100;96326.42;;;;
2020/11/07 02:10:15;;;;;;;24.8;13.45;;;;;;;5.15;100;96326.09;;;;
2020/11/07 02:11:19;;;;;;;24.8;13.45;;;;;;;5.15;100;96326.09;;;;
2020/11/07 02:12:20;;;;;;;24.8;13.45;;;;;;;5.15;100;96326.09;;;;
2020/11/07 02:13:23;;;;;;;24.8;13.45;;;;;;;5.15;100;96326.09;;;;
2020/11/07 02:14:24;;;;;;;24.8;13.45;;;;;;;5.15;100;96326.09;;;;
2020/11/07 02:15:24;;;;;;;24.8;13.45;;;;;;;5.15;100;96326.09;;;;
2020/11/07 02:16:25;;;;;;;24.8;13.45;;;;;;;5.15;100;96326.09;;;;
2020/11/07 02:17:25;;;;;;;24.8;13.45;;;;;;;5.15;100;96326.09;;;;
2020/11/07 02:18:26;;;;;;;24.8;13.45;;;;;;;5.15;100;96326.09;;;;
2020/11/07 02:19:26;;;;;;;24.8;13.45;;;;;;;5.15;100;96326.09;;;;
2020/11/07 02:20:27;;;;;;;34.6;13.3;;;;;;;5.06;100;96325.32;;;;
2020/11/07 02:21:36;;;;;;;34.6;13.3;;;;;;;5.06;100;96325.32;;;;
2020/11/07 02:22:37;;;;;;;34.6;13.3;;;;;;;5.06;100;96325.32;;;;
2020/11/07 02:23:39;;;;;;;34.6;13.3;;;;;;;5.06;100;96325.32;;;;
2020/11/07 02:24:40;;;;;;;34.6;13.3;;;;;;;5.06;100;96325.32;;;;
2020/11/07 02:25:40;;;;;;;34.6;13.3;;;;;;;5.06;100;96325.32;;;;
2020/11/07 02:26:41;;;;;;;34.6;13.3;;;;;;;5.06;100;96325.32;;;;
2020/11/07 02:27:42;;;;;;;34.6;13.3;;;;;;;5.06;100;96325.32;;;;
2020/11/07 02:28:43;;;;;;;34.6;13.3;;;;;;;5.06;100;96325.32;;;;
2020/11/07 02:29:43;;;;;;;34.6;13.3;;;;;;;5.06;100;96325.32;;;;
2020/11/07 02:30:44;;;;;;;34.6;13.3;;;;;;;5.06;100;96325.32;;;;
2020/11/07 02:31:44;;;;;;;19.4;11.6;;;;;;;4.96;100;96332.75;;;;
2020/11/07 02:32:45;;;;;;;19.4;11.6;;;;;;;4.96;100;96332.75;;;;
2020/11/07 02:33:46;;;;;;;19.4;11.6;;;;;;;4.96;100;96332.75;;;;
2020/11/07 02:34:47;;;;;;;19.4;11.6;;;;;;;4.96;100;96332.75;;;;
2020/11/07 02:35:48;;;;;;;19.4;11.6;;;;;;;4.96;100;96332.75;;;;
2020/11/07 02:36:49;;;;;;;19.4;11.6;;;;;;;4.96;100;96332.75;;;;
2020/11/07 02:37:50;;;;;;;19.4;11.6;;;;;;;4.96;100;96332.75;;;;
2020/11/07 02:38:50;;;;;;;19.4;11.6;;;;;;;4.96;100;96332.75;;;;
2020/11/07 02:39:51;;;;;;;19.4;11.6;;;;;;;4.96;100;96332.75;;;;
2020/11/07 02:40:52;;;;;;;19.4;11.6;;;;;;;4.96;100;96332.75;;;;
2020/11/07 02:41:52;;;;;;;18.55;11.65;;;;;;;4.95;100;96331.98;;;;
2020/11/07 02:42:53;;;;;;;18.55;11.65;;;;;;;4.95;100;96331.98;;;;
2020/11/07 02:43:53;;;;;;;18.55;11.65;;;;;;;4.95;100;96331.98;;;;
2020/11/07 02:44:54;;;;;;;18.55;11.65;;;;;;;4.95;100;96331.98;;;;
2020/11/07 02:45:54;;;;;;;18.55;11.65;;;;;;;4.95;100;96331.98;;;;
2020/11/07 02:46:54;;;;;;;18.55;11.65;;;;;;;4.95;100;96331.98;;;;
2020/11/07 02:47:55;;;;;;;18.55;11.65;;;;;;;4.95;100;96331.98;;;;
2020/11/07 02:48:56;;;;;;;18.55;11.65;;;;;;;4.95;100;96331.98;;;;
2020/11/07 02:49:57;;;;;;;18.55;11.65;;;;;;;4.95;100;96331.98;;;;
2020/11/07 02:51:00;;;;;;;18.55;11.65;;;;;;;4.95;100;96331.98;;;;
2020/11/07 02:52:01;;;;;;;18.55;11.65;;;;;;;4.95;100;96331.98;;;;
2020/11/07 02:53:02;;;;;;;15.75;10.35;;;;;;;4.94;100;96333.5;;;;
2020/11/07 02:54:04;;;;;;;15.75;10.35;;;;;;;4.94;100;96333.5;;;;
2020/11/07 02:55:05;;;;;;;15.75;10.35;;;;;;;4.94;100;96333.5;;;;
2020/11/07 02:56:05;;;;;;;15.75;10.35;;;;;;;4.94;100;96333.5;;;;
2020/11/07 02:57:06;;;;;;;15.75;10.35;;;;;;;4.94;100;96333.5;;;;
2020/11/07 02:58:06;;;;;;;15.75;10.35;;;;;;;4.94;100;96333.5;;;;
2020/11/07 02:59:07;;;;;;;15.75;10.35;;;;;;;4.94;100;96333.5;;;;
2020/11/07 03:00:07;;;;;;;15.75;10.35;;;;;;;4.94;100;96333.5;;;;
2020/11/07 03:01:14;;;;;;;15.75;10.35;;;;;;;4.94;100;96333.5;;;;
2020/11/07 03:02:15;;;;;;;15.75;10.35;;;;;;;4.94;100;96333.5;;;;
2020/11/07 03:03:15;;;;;;;16.65;9.100001;;;;;;;4.9;100;96333.03;;;;
2020/11/07 03:04:16;;;;;;;16.65;9.100001;;;;;;;4.9;100;96333.03;;;;
2020/11/07 03:05:17;;;;;;;16.65;9.100001;;;;;;;4.9;100;96333.03;;;;
2020/11/07 03:06:18;;;;;;;16.65;9.100001;;;;;;;4.9;100;96333.03;;;;
2020/11/07 03:07:19;;;;;;;16.65;9.100001;;;;;;;4.9;100;96333.03;;;;
2020/11/07 03:08:19;;;;;;;16.65;9.100001;;;;;;;4.9;100;96333.03;;;;
2020/11/07 03:09:19;;;;;;;16.65;9.100001;;;;;;;4.9;100;96333.03;;;;
2020/11/07 03:10:20;;;;;;;16.65;9.100001;;;;;;;4.9;100;96333.03;;;;
2020/11/07 03:11:22;;;;;;;16.65;9.100001;;;;;;;4.9;100;96333.03;;;;
2020/11/07 03:12:23;;;;;;;16.65;9.100001;;;;;;;4.9;100;96333.03;;;;
2020/11/07 03:13:23;;;;;;;16.65;9.100001;;;;;;;4.9;100;96333.03;;;;
2020/11/07 03:14:24;;;;;;;32.85;9.300001;;;;;;;4.76;100;96327.92;;;;
2020/11/07 03:15:24;;;;;;;32.85;9.300001;;;;;;;4.76;100;96327.92;;;;
2020/11/07 03:16:25;;;;;;;32.85;9.300001;;;;;;;4.76;100;96327.92;;;;
2020/11/07 03:17:25;;;;;;;32.85;9.300001;;;;;;;4.76;100;96327.92;;;;
2020/11/07 03:18:27;;;;;;;32.85;9.300001;;;;;;;4.76;100;96327.92;;;;
2020/11/07 03:19:27;;;;;;;32.85;9.300001;;;;;;;4.76;100;96327.92;;;;
2020/11/07 03:20:28;;;;;;;32.85;9.300001;;;;;;;4.76;100;96327.92;;;;
2020/11/07 03:21:28;;;;;;;32.85;9.300001;;;;;;;4.76;100;96327.92;;;;
2020/11/07 03:22:29;;;;;;;32.85;9.300001;;;;;;;4.76;100;96327.92;;;;
2020/11/07 03:23:29;;;;;;;32.85;9.300001;;;;;;;4.76;100;96327.92;;;;
2020/11/07 03:24:30;;;;;;;27.45;9.550001;;;;;;;4.65;100;96325.62;;;;
2020/11/07 03:25:30;;;;;;;27.45;9.550001;;;;;;;4.65;100;96325.62;;;;
2020/11/07 03:26:31;;;;;;;27.45;9.550001;;;;;;;4.65;100;96325.62;;;;
2020/11/07 03:27:31;;;;;;;27.45;9.550001;;;;;;;4.65;100;96325.62;;;;
2020/11/07 03:28:32;;;;;;;27.45;9.550001;;;;;;;4.65;100;96325.62;;;;
2020/11/07 03:29:32;;;;;;;27.45;9.550001;;;;;;;4.65;100;96325.62;;;;
2020/11/07 03:30:33;;;;;;;27.45;9.550001;;;;;;;4.65;100;96325.62;;;;
2020/11/07 03:31:33;;;;;;;27.45;9.550001;;;;;;;4.65;100;96325.62;;;;
2020/11/07 03:32:34;;;;;;;27.45;9.550001;;;;;;;4.65;100;96325.62;;;;
2020/11/07 03:33:34;;;;;;;27.45;9.550001;;;;;;;4.65;100;96325.62;;;;
2020/11/07 03:34:35;;;;;;;27.45;9.550001;;;;;;;4.65;100;96325.62;;;;
2020/11/07 03:35:35;;;;;;;20.95;8.950001;;;;;;;4.62;100;96323.81;;;;
2020/11/07 03:36:36;;;;;;;20.95;8.950001;;;;;;;4.62;100;96323.81;;;;
2020/11/07 03:37:37;;;;;;;20.95;8.950001;;;;;;;4.62;100;96323.81;;;;
2020/11/07 03:38:38;;;;;;;20.95;8.950001;;;;;;;4.62;100;96323.81;;;;
2020/11/07 03:39:38;;;;;;;20.95;8.950001;;;;;;;4.62;100;96323.81;;;;
2020/11/07 03:40:39;;;;;;;20.95;8.950001;;;;;;;4.62;100;96323.81;;;;
2020/11/07 03:41:39;;;;;;;20.95;8.950001;;;;;;;4.62;100;96323.81;;;;
2020/11/07 03:42:40;;;;;;;20.95;8.950001;;;;;;;4.62;100;96323.81;;;;
2020/11/07 03:43:40;;;;;;;20.95;8.950001;;;;;;;4.62;100;96323.81;;;;
2020/11/07 03:44:41;;;;;;;20.95;8.950001;;;;;;;4.62;100;96323.81;;;;
2020/11/07 03:45:41;;;;;;;20.95;8.950001;;;;;;;4.62;100;96323.81;;;;
2020/11/07 03:46:42;;;;;;;12.35;8.95;;;;;;;4.58;100;96328.25;;;;
2020/11/07 03:47:42;;;;;;;12.35;8.95;;;;;;;4.58;100;96328.25;;;;
2020/11/07 03:48:43;;;;;;;12.35;8.95;;;;;;;4.58;100;96328.25;;;;
2020/11/07 03:49:44;;;;;;;12.35;8.95;;;;;;;4.58;100;96328.25;;;;
2020/11/07 03:50:44;;;;;;;12.35;8.95;;;;;;;4.58;100;96328.25;;;;
2020/11/07 03:51:45;;;;;;;12.35;8.95;;;;;;;4.58;100;96328.25;;;;
2020/11/07 03:52:45;;;;;;;12.35;8.95;;;;;;;4.58;100;96328.25;;;;
2020/11/07 03:53:46;;;;;;;12.35;8.95;;;;;;;4.58;100;96328.25;;;;
2020/11/07 03:54:46;;;;;;;12.35;8.95;;;;;;;4.58;100;96328.25;;;;
2020/11/07 03:55:47;;;;;;;12.35;8.95;;;;;;;4.58;100;96328.25;;;;
2020/11/07 03:56:47;;;;;;;12.05;8.450001;;;;;;;4.63;100;96328.55;;;;
2020/11/07 03:57:48;;;;;;;12.05;8.450001;;;;;;;4.63;100;96328.55;;;;
2020/11/07 03:58:49;;;;;;;12.05;8.450001;;;;;;;4.63;100;96328.55;;;;
2020/11/07 03:59:49;;;;;;;12.05;8.450001;;;;;;;4.63;100;96328.55;;;;
2020/11/07 04:00:50;;;;;;;12.05;8.450001;;;;;;;4.63;100;96328.55;;;;
2020/11/07 04:01:50;;;;;;;12.05;8.450001;;;;;;;4.63;100;96328.55;;;;
2020/11/07 04:02:51;;;;;;;12.05;8.450001;;;;;;;4.63;100;96328.55;;;;
2020/11/07 04:03:51;;;;;;;12.05;8.450001;;;;;;;4.63;100;96328.55;;;;
2020/11/07 04:04:52;;;;;;;12.05;8.450001;;;;;;;4.63;100;96328.55;;;;
2020/11/07 04:05:52;;;;;;;12.05;8.450001;;;;;;;4.63;100;96328.55;;;;
2020/11/07 04:06:53;;;;;;;12.05;8.450001;;;;;;;4.63;100;96328.55;;;;
2020/11/07 04:07:53;;;;;;;25.7;7.4;;;;;;;4.58;100;96333.59;;;;
2020/11/07 04:08:54;;;;;;;25.7;7.4;;;;;;;4.58;100;96333.59;;;;
2020/11/07 04:09:54;;;;;;;25.7;7.4;;;;;;;4.58;100;96333.59;;;;
2020/11/07 04:10:54;;;;;;;25.7;7.4;;;;;;;4.58;100;96333.59;;;;
2020/11/07 04:11:55;;;;;;;25.7;7.4;;;;;;;4.58;100;96333.59;;;;
2020/11/07 04:12:55;;;;;;;25.7;7.4;;;;;;;4.58;100;96333.59;;;;
2020/11/07 04:13:56;;;;;;;25.7;7.4;;;;;;;4.58;100;96333.59;;;;
2020/11/07 04:14:57;;;;;;;25.7;7.4;;;;;;;4.58;100;96333.59;;;;
2020/11/07 04:15:57;;;;;;;25.7;7.4;;;;;;;4.58;100;96333.59;;;;
2020/11/07 04:17:00;;;;;;;25.7;7.4;;;;;;;4.58;100;96333.59;;;;
2020/11/07 04:18:00;;;;;;;14.65;6.15;;;;;;;4.55;100;96329;;;;
2020/11/07 04:19:01;;;;;;;14.65;6.15;;;;;;;4.55;100;96329;;;;
2020/11/07 04:20:02;;;;;;;14.65;6.15;;;;;;;4.55;100;96329;;;;
2020/11/07 04:21:03;;;;;;;14.65;6.15;;;;;;;4.55;100;96329;;;;
2020/11/07 04:22:04;;;;;;;14.65;6.15;;;;;;;4.55;100;96329;;;;
2020/11/07 04:23:05;;;;;;;14.65;6.15;;;;;;;4.55;100;96329;;;;
2020/11/07 04:24:06;;;;;;;14.65;6.15;;;;;;;4.55;100;96329;;;;
2020/11/07 04:25:07;;;;;;;14.65;6.15;;;;;;;4.55;100;96329;;;;
2020/11/07 04:26:07;;;;;;;14.65;6.15;;;;;;;4.55;100;96329;;;;
2020/11/07 04:27:08;;;;;;;14.65;6.15;;;;;;;4.55;100;96329;;;;
2020/11/07 04:28:09;;;;;;;14.65;6.15;;;;;;;4.55;100;96329;;;;
2020/11/07 04:29:09;;;;;;;8.25;5.25;;;;;;;4.47;100;96333.06;;;;
2020/11/07 04:30:10;;;;;;;8.25;5.25;;;;;;;4.47;100;96333.06;;;;
2020/11/07 04:31:10;;;;;;;8.25;5.25;;;;;;;4.47;100;96333.06;;;;
2020/11/07 04:32:11;;;;;;;8.25;5.25;;;;;;;4.47;100;96333.06;;;;
2020/11/07 04:33:11;;;;;;;8.25;5.25;;;;;;;4.47;100;96333.06;;;;
2020/11/07 04:34:12;;;;;;;8.25;5.25;;;;;;;4.47;100;96333.06;;;;
2020/11/07 04:35:12;;;;;;;8.25;5.25;;;;;;;4.47;100;96333.06;;;;
2020/11/07 04:36:13;;;;;;;8.25;5.25;;;;;;;4.47;100;96333.06;;;;
2020/11/07 04:37:17;;;;;;;8.25;5.25;;;;;;;4.47;100;96333.06;;;;
2020/11/07 04:38:18;;;;;;;8.25;5.25;;;;;;;4.47;100;96333.06;;;;
2020/11/07 04:39:18;;;;;;;9.1;5.699999;;;;;;;4.36;100;96314.29;;;;
2020/11/07 04:40:19;;;;;;;9.1;5.699999;;;;;;;4.36;100;96314.29;;;;
2020/11/07 04:41:19;;;;;;;9.1;5.699999;;;;;;;4.36;100;96314.29;;;;
2020/11/07 04:42:23;;;;;;;9.1;5.699999;;;;;;;4.36;100;96314.29;;;;
2020/11/07 04:43:24;;;;;;;9.1;5.699999;;;;;;;4.36;100;96314.29;;;;
2020/11/07 04:44:27;;;;;;;9.1;5.699999;;;;;;;4.36;100;96314.29;;;;
2020/11/07 04:45:39;;;;;;;9.1;5.699999;;;;;;;4.36;100;96314.29;;;;
2020/11/07 04:46:41;;;;;;;9.1;5.699999;;;;;;;4.36;100;96314.29;;;;
2020/11/07 04:47:45;;;;;;;9.1;5.699999;;;;;;;4.36;100;96314.29;;;;
2020/11/07 04:48:46;;;;;;;9.1;5.699999;;;;;;;4.36;100;96314.29;;;;
2020/11/07 04:49:54;;;;;;;9.700001;6.6;;;;;;;4.26;100;96311.42;;;;
2020/11/07 04:51:00;;;;;;;9.700001;6.6;;;;;;;4.26;100;96311.42;;;;
2020/11/07 04:52:01;;;;;;;9.700001;6.6;;;;;;;4.26;100;96311.42;;;;
2020/11/07 04:53:13;;;;;;;9.700001;6.6;;;;;;;4.26;100;96311.42;;;;
2020/11/07 04:54:18;;;;;;;9.700001;6.6;;;;;;;4.26;100;96311.42;;;;
2020/11/07 04:55:22;;;;;;;9.700001;6.6;;;;;;;4.26;100;96311.42;;;;
2020/11/07 04:56:27;;;;;;;9.700001;6.6;;;;;;;4.26;100;96311.42;;;;
2020/11/07 04:57:27;;;;;;;9.700001;6.6;;;;;;;4.26;100;96311.42;;;;
2020/11/07 04:58:36;;;;;;;9.700001;6.6;;;;;;;4.26;100;96311.42;;;;
2020/11/07 04:59:36;;;;;;;9.700001;6.6;;;;;;;4.26;100;96311.42;;;;
2020/11/07 05:00:41;;;;;;;16.2;6.5;;;;;;;4.28;100;96321.01;;;;
2020/11/07 05:01:42;;;;;;;16.2;6.5;;;;;;;4.28;100;96321.01;;;;
2020/11/07 05:02:42;;;;;;;16.2;6.5;;;;;;;4.28;100;96321.01;;;;
2020/11/07 05:03:53;;;;;;;16.2;6.5;;;;;;;4.28;100;96321.01;;;;
2020/11/07 05:04:54;;;;;;;16.2;6.5;;;;;;;4.28;100;96321.01;;;;
2020/11/07 05:05:54;;;;;;;16.2;6.5;;;;;;;4.28;100;96321.01;;;;
2020/11/07 05:06:58;;;;;;;16.2;6.5;;;;;;;4.28;100;96321.01;;;;
2020/11/07 05:08:03;;;;;;;16.2;6.5;;;;;;;4.28;100;96321.01;;;;
2020/11/07 05:09:05;;;;;;;16.2;6.5;;;;;;;4.28;100;96321.01;;;;
2020/11/07 05:10:07;;;;;;;16.2;6.5;;;;;;;4.28;100;96321.01;;;;
2020/11/07 05:11:12;;;;;;;20.1;6.250001;;;;;;;4.29;100;96310.64;;;;
2020/11/07 05:12:13;;;;;;;20.1;6.250001;;;;;;;4.29;100;96310.64;;;;
2020/11/07 05:13:15;;;;;;;20.1;6.250001;;;;;;;4.29;100;96310.64;;;;
2020/11/07 05:14:22;;;;;;;20.1;6.250001;;;;;;;4.29;100;96310.64;;;;
2020/11/07 05:15:23;;;;;;;20.1;6.250001;;;;;;;4.29;100;96310.64;;;;
2020/11/07 05:16:25;;;;;;;20.1;6.250001;;;;;;;4.29;100;96310.64;;;;
2020/11/07 05:17:29;;;;;;;20.1;6.250001;;;;;;;4.29;100;96310.64;;;;
2020/11/07 05:18:37;;;;;;;20.1;6.250001;;;;;;;4.29;100;96310.64;;;;
2020/11/07 05:19:40;;;;;;;20.1;6.250001;;;;;;;4.29;100;96310.64;;;;
2020/11/07 05:20:44;;;;;;;20.1;6.250001;;;;;;;4.29;100;96310.64;;;;
2020/11/07 05:21:45;;;;;;;20.1;6.250001;;;;;;;4.29;100;96310.64;;;;
2020/11/07 05:22:49;;;;;;;7.75;5.6;;;;;;;4.23;100;96304.64;;;;
2020/11/07 05:23:54;;;;;;;7.75;5.6;;;;;;;4.23;100;96304.64;;;;
2020/11/07 05:25:02;;;;;;;7.75;5.6;;;;;;;4.23;100;96304.64;;;;
2020/11/07 05:26:17;;;;;;;7.75;5.6;;;;;;;4.23;100;96304.64;;;;
2020/11/07 05:27:25;;;;;;;7.75;5.6;;;;;;;4.23;100;96304.64;;;;
2020/11/07 05:28:25;;;;;;;7.75;5.6;;;;;;;4.23;100;96304.64;;;;
2020/11/07 05:29:26;;;;;;;7.75;5.6;;;;;;;4.23;100;96304.64;;;;
2020/11/07 05:30:26;;;;;;;7.75;5.6;;;;;;;4.23;100;96304.64;;;;
2020/11/07 05:31:29;;;;;;;7.75;5.6;;;;;;;4.23;100;96304.64;;;;
2020/11/07 05:33:00;;;;;;;11.5;6.449999;;;;;;;4.23;100;96311.31;;;;
2020/11/07 05:34:12;;;;;;;11.5;6.449999;;;;;;;4.23;100;96311.31;;;;
2020/11/07 05:35:14;;;;;;;11.5;6.449999;;;;;;;4.23;100;96311.31;;;;
2020/11/07 05:36:22;;;;;;;11.5;6.449999;;;;;;;4.23;100;96311.31;;;;
2020/11/07 05:37:32;;;;;;;11.5;6.449999;;;;;;;4.23;100;96311.31;;;;
2020/11/07 05:38:37;;;;;;;11.5;6.449999;;;;;;;4.23;100;96311.31;;;;
2020/11/07 05:39:44;;;;;;;11.5;6.449999;;;;;;;4.23;100;96311.31;;;;
2020/11/07 05:40:53;;;;;;;11.5;6.449999;;;;;;;4.23;100;96311.31;;;;
2020/11/07 05:41:53;;;;;;;11.5;6.449999;;;;;;;4.23;100;96311.31;;;;
2020/11/07 05:42:56;;;;;;;11.5;6.449999;;;;;;;4.23;100;96311.31;;;;
2020/11/07 05:44:05;;;;;;;14.15;5.85;;;;;;;4.32;100;96317.39;;;;
2020/11/07 05:45:16;;;;;;;14.15;5.85;;;;;;;4.32;100;96317.39;;;;
2020/11/07 05:46:24;;;;;;;14.15;5.85;;;;;;;4.32;100;96317.39;;;;
2020/11/07 05:47:32;;;;;;;14.15;5.85;;;;;;;4.32;100;96317.39;;;;
2020/11/07 05:48:47;;;;;;;14.15;5.85;;;;;;;4.32;100;96317.39;;;;
2020/11/07 05:49:55;;;;;;;14.15;5.85;;;;;;;4.32;100;96317.39;;;;
2020/11/07 05:51:09;;;;;;;14.15;5.85;;;;;;;4.32;100;96317.39;;;;
2020/11/07 05:52:28;;;;;;;14.15;5.85;;;;;;;4.32;100;96317.39;;;;
2020/11/07 05:53:55;;;;;;;11;6.050001;;;;;;;4.34;100;96302.09;;;;
2020/11/07 05:55:01;;;;;;;11;6.050001;;;;;;;4.34;100;96302.09;;;;
2020/11/07 05:56:21;;;;;;;11;6.050001;;;;;;;4.34;100;96302.09;;;;
2020/11/07 05:58:29;;;;;;;11;6.050001;;;;;;;4.34;100;96302.09;;;;
2020/11/07 05:59:30;;;;;;;11;6.050001;;;;;;;4.34;100;96302.09;;;;
2020/11/07 06:00:33;;;;;;;11;6.050001;;;;;;;4.34;100;96302.09;;;;
2020/11/07 06:01:33;;;;;;;11;6.050001;;;;;;;4.34;100;96302.09;;;;
2020/11/07 06:02:35;;;;;;;11;6.050001;;;;;;;4.34;100;96302.09;;;;
2020/11/07 06:03:37;;;;;;;11;6.050001;;;;;;;4.34;100;96302.09;;;;
2020/11/07 06:04:38;;;;;;;9.649999;6.299999;;;;;;;4.37;100;96312.35;;;;
2020/11/07 06:05:40;;;;;;;9.649999;6.299999;;;;;;;4.37;100;96312.35;;;;
2020/11/07 06:06:41;;;;;;;9.649999;6.299999;;;;;;;4.37;100;96312.35;;;;
2020/11/07 06:07:41;;;;;;;9.649999;6.299999;;;;;;;4.37;100;96312.35;;;;
2020/11/07 06:08:55;;;;;;;9.649999;6.299999;;;;;;;4.37;100;96312.35;;;;
2020/11/07 06:10:27;;;;;;;9.649999;6.299999;;;;;;;4.37;100;96312.35;;;;
2020/11/07 06:11:38;;;;;;;9.649999;6.299999;;;;;;;4.37;100;96312.35;;;;
2020/11/07 06:12:38;;;;;;;9.649999;6.299999;;;;;;;4.37;100;96312.35;;;;
2020/11/07 06:13:50;;;;;;;9.649999;6.299999;;;;;;;4.37;100;96312.35;;;;